createdAt,value
2023-02-01T00:01:41.639Z,99551.03
2023-02-01T00:04:19.234Z,99547.31
2023-02-01T00:07:14.290Z,99540.52
2023-02-01T00:09:50.749Z,99535.09
2023-02-01T00:12:27.940Z,99538.34
2023-02-01T00:15:16.546Z,99537.35
2023-02-01T00:18:07.438Z,99536.16
2023-02-01T00:21:07.527Z,99540.16
2023-02-01T00:24:04.555Z,99544.13
2023-02-01T00:26:46.700Z,99545.35
2023-02-01T00:29:27.564Z,99549.83
2023-02-01T00:32:02.552Z,99548.63
2023-02-01T00:34:45.927Z,99556.20
2023-02-01T00:37:23.989Z,99556.39
2023-02-01T00:40:00.465Z,99558.48
2023-02-01T00:43:00.635Z,99555.92
2023-02-01T00:45:48.448Z,99563.02
2023-02-01T00:48:18.099Z,99564.59
2023-02-01T00:50:54.410Z,99573.89
2023-02-01T00:54:00.894Z,99579.21
2023-02-01T00:56:21.615Z,99579.23
2023-02-01T00:59:19.131Z,99580.58
2023-02-01T01:02:00.142Z,99579.03
2023-02-01T01:04:41.687Z,99580.73
2023-02-01T01:07:24.971Z,99586.23
2023-02-01T01:10:05.161Z,99583.39
2023-02-01T01:12:55.758Z,99583.05
2023-02-01T01:15:44.754Z,99584.59
2023-02-01T01:18:19.039Z,99584.92
2023-02-01T01:20:53.775Z,99583.88
2023-02-01T01:23:41.866Z,99585.20
2023-02-01T01:26:28.087Z,99580.20
2023-02-01T01:29:13.073Z,99577.57
2023-02-01T01:31:55.292Z,99579.98
2023-02-01T01:34:32.528Z,99576.75
2023-02-01T01:37:02.076Z,99585.27
2023-02-01T01:39:44.079Z,99588.68
2023-02-01T01:42:28.465Z,99585.58
2023-02-01T01:45:36.072Z,99587.30
2023-02-01T01:48:34.050Z,99578.87
2023-02-01T01:51:23.518Z,99579.03
2023-02-01T01:54:43.589Z,99582.81
2023-02-01T01:57:31.339Z,99581.61
2023-02-01T02:00:18.651Z,99581.73
2023-02-01T02:02:54.468Z,99584.74
2023-02-01T02:05:33.941Z,99588.73
2023-02-01T02:08:11.391Z,99584.16
2023-02-01T02:11:01.163Z,99584.56
2023-02-01T02:13:45.381Z,99587.45
2023-02-01T02:16:58.267Z,99580.09
2023-02-01T02:20:24.561Z,99587.87
2023-02-01T02:23:54.616Z,99590.73
2023-02-01T02:27:41.252Z,99590.13
2023-02-01T02:31:00.571Z,99586.73
2023-02-01T02:34:34.731Z,99585.38
2023-02-01T02:38:22.640Z,99583.32
2023-02-01T02:41:11.956Z,99585.05
2023-02-01T02:44:18.274Z,99590.88
2023-02-01T02:47:29.833Z,99592.95
2023-02-01T02:50:34.634Z,99593.66
2023-02-01T02:53:57.483Z,99596.79
2023-02-01T02:57:08.794Z,99597.69
2023-02-01T03:00:28.955Z,99599.98
2023-02-01T03:03:29.277Z,99602.39
2023-02-01T03:06:23.856Z,99602.71
2023-02-01T03:09:19.918Z,99595.33
2023-02-01T03:12:24.648Z,99597.88
2023-02-01T03:15:30.316Z,99599.75
2023-02-01T03:18:22.112Z,99597.86
2023-02-01T03:20:58.129Z,99606.08
2023-02-01T03:23:40.267Z,99605.89
2023-02-01T03:26:33.236Z,99606.73
2023-02-01T03:29:21.186Z,99613.95
2023-02-01T03:31:58.397Z,99611.16
2023-02-01T03:34:33.918Z,99606.29
2023-02-01T03:37:31.145Z,99604.17
2023-02-01T03:40:19.745Z,99600.81
2023-02-01T03:43:11.216Z,99599.20
2023-02-01T03:46:00.945Z,99601.20
2023-02-01T03:48:44.103Z,99596.80
2023-02-01T03:51:24.717Z,99596.02
2023-02-01T03:54:03.380Z,99596.65
2023-02-01T03:56:47.387Z,99590.20
2023-02-01T03:59:19.111Z,99590.29
2023-02-01T04:01:59.857Z,99590.69
2023-02-01T04:05:07.647Z,99589.17
2023-02-01T04:08:01.110Z,99587.34
2023-02-01T04:10:44.372Z,99581.56
2023-02-01T04:13:19.877Z,99586.64
2023-02-01T04:16:10.621Z,99593.80
2023-02-01T04:21:45.439Z,99592.90
2023-02-01T04:24:36.884Z,99596.33
2023-02-01T04:27:14.031Z,99592.82
2023-02-01T04:29:47.491Z,99594.46
2023-02-01T04:32:23.899Z,99593.70
2023-02-01T04:34:56.520Z,99593.33
2023-02-01T04:37:40.533Z,99591.11
2023-02-01T04:40:16.198Z,99597.19
2023-02-01T04:42:54.266Z,99596.27
2023-02-01T04:45:28.006Z,99593.58
2023-02-01T04:48:13.506Z,99592.83
2023-02-01T04:50:48.202Z,99598.21
2023-02-01T04:53:23.636Z,99595.70
2023-02-01T04:55:59.850Z,99600.29
2023-02-01T04:59:00.262Z,99590.39
2023-02-01T05:01:39.325Z,99593.02
2023-02-01T05:04:27.805Z,99595.30
2023-02-01T05:07:11.873Z,99595.86
2023-02-01T05:10:11.593Z,99596.73
2023-02-01T05:13:43.872Z,99598.12
2023-02-01T05:16:45.313Z,99595.75
2023-02-01T05:19:53.195Z,99594.35
2023-02-01T05:22:53.579Z,99595.16
2023-02-01T05:26:06.721Z,99592.03
2023-02-01T05:29:51.749Z,99586.38
2023-02-01T05:33:15.995Z,99591.67
2023-02-01T05:36:24.135Z,99588.03
2023-02-01T05:39:50.565Z,99592.48
2023-02-01T05:43:05.424Z,99590.01
2023-02-01T05:46:19.614Z,99579.61
2023-02-01T05:49:26.403Z,99581.48
2023-02-01T05:53:53.950Z,99579.25
2023-02-01T05:56:53.161Z,99574.66
2023-02-01T05:59:42.977Z,99574.79
2023-02-01T06:02:40.950Z,99579.21
2023-02-01T06:05:24.005Z,99573.67
2023-02-01T06:08:58.271Z,99572.09
2023-02-01T06:11:34.043Z,99572.48
2023-02-01T06:14:13.059Z,99572.12
2023-02-01T06:17:18.589Z,99567.14
2023-02-01T06:20:02.622Z,99568.06
2023-02-01T06:22:54.995Z,99576.52
2023-02-01T06:25:33.731Z,99579.91
2023-02-01T06:28:11.091Z,99576.58
2023-02-01T06:31:02.033Z,99577.41
2023-02-01T06:39:07.377Z,99581.17
2023-02-01T06:42:59.138Z,99583.54
2023-02-01T06:47:05.835Z,99585.92
2023-02-01T07:23:14.223Z,99575.88
2023-02-01T07:35:25.282Z,99582.16
2023-02-01T07:40:03.234Z,99585.55
2023-02-01T07:45:20.888Z,99594.23
2023-02-01T08:20:57.503Z,99557.35
2023-02-01T08:25:29.981Z,99548.45
2023-02-01T08:28:50.138Z,99553.58
2023-02-01T08:32:20.726Z,99560.65
2023-02-01T08:36:07.985Z,99557.02
2023-02-01T08:40:19.685Z,99554.74
2023-02-01T08:43:26.428Z,99557.38
2023-02-01T08:46:25.979Z,99556.89
2023-02-01T08:49:37.285Z,99562.54
2023-02-01T08:52:37.921Z,99560.41
2023-02-01T08:56:06.481Z,99558.91
2023-02-01T08:59:37.898Z,99555.38
2023-02-01T09:03:05.809Z,99553.00
2023-02-01T09:06:55.506Z,99553.57
2023-02-01T09:09:55.908Z,99549.52
2023-02-01T09:13:15.325Z,99551.92
2023-02-01T09:16:39.619Z,99562.76
2023-02-01T09:19:50.085Z,99561.83
2023-02-01T09:22:56.821Z,99559.39
2023-02-01T09:39:22.674Z,99538.96
2023-02-01T09:43:44.723Z,99541.30
2023-02-01T09:47:14.736Z,99538.70
2023-02-01T10:17:13.741Z,99516.45
2023-02-01T10:20:23.333Z,99511.66
2023-02-01T10:28:12.196Z,99514.54
2023-02-01T10:36:20.511Z,99514.56
2023-02-01T11:11:38.518Z,99485.78
2023-02-01T12:44:14.398Z,99424.31
2023-02-01T13:18:56.457Z,99445.55
2023-02-01T18:34:40.596Z,99401.88
2023-02-01T19:12:44.101Z,99363.31
2023-02-01T20:57:54.877Z,99311.80
2023-02-01T21:20:51.548Z,99316.69
2023-02-01T21:24:43.295Z,99320.52
2023-02-01T21:28:01.942Z,99321.60
2023-02-01T21:33:18.375Z,99318.81
2023-02-01T21:39:02.417Z,99338.13
2023-02-01T21:43:05.132Z,99345.84
2023-02-01T23:05:15.623Z,99404.21
2023-02-01T23:25:57.343Z,99409.96
2023-02-01T23:59:00.845Z,99409.29
